Time;durP1;ratioP1;P1;durP2;ratioP2;P2;SDS_P1;SDS_P2;PMS_P1;PMS_P2;Temp;Humidity;BMP_temperature;BMP_pressure;BME280_temperature;BME280_humidity;BME280_pressure;Samples;Min_cycle;Max_cycle;Signal;HPM_P1;HPM_P2
2022/09/15 16:34:58;;;;;;;6.93;1.80;;;;;;;20.82;48.18;100645.34;5209288;27;20446;-58
2022/09/15 16:37:23;;;;;;;7.50;2.60;;;;;;;20.77;48.44;100642.94;5189526;27;21085;-59
2022/09/15 16:39:50;;;;;;;8.37;2.30;;;;;;;20.62;48.88;100638.47;5188711;27;20283;-60
2022/09/15 16:42:16;;;;;;;9.65;2.72;;;;;;;20.77;48.57;100642.94;5130767;27;20792;-60
2022/09/15 16:44:41;;;;;;;8.40;2.00;;;;;;;20.73;49.18;100642.09;5114428;27;20136;-60
2022/09/15 16:47:07;;;;;;;6.32;1.20;;;;;;;20.63;49.16;100637.31;5115833;27;20047;-60
2022/09/15 16:49:36;;;;;;;5.68;1.25;;;;;;;20.72;49.83;100648.78;5127255;27;20053;-60
2022/09/15 16:52:01;;;;;;;6.20;1.60;;;;;;;20.72;49.48;100646.03;5126872;27;20032;-60
2022/09/15 16:54:26;;;;;;;7.13;1.50;;;;;;;20.74;50.48;100646.44;5127537;27;20027;-60
2022/09/15 16:56:52;;;;;;;7.55;1.92;;;;;;;20.65;50.45;100649.53;5127408;27;20246;-60
2022/09/15 16:59:17;;;;;;;6.13;1.65;;;;;;;20.66;50.40;100650.31;5126829;27;20385;-60
2022/09/15 17:01:42;;;;;;;8.07;1.58;;;;;;;20.62;49.67;100646.72;5125761;27;20103;-61
2022/09/15 17:04:07;;;;;;;6.15;1.58;;;;;;;20.61;50.19;100650.63;5126946;27;20119;-61
2022/09/15 17:06:33;;;;;;;6.25;1.60;;;;;;;20.62;50.16;100652.22;5125873;27;20028;-61
2022/09/15 17:08:58;;;;;;;4.95;1.40;;;;;;;20.54;49.52;100652.13;5126686;27;20024;-61
2022/09/15 17:11:24;;;;;;;3.70;1.30;;;;;;;20.55;50.33;100650.97;5126756;27;20027;-61
2022/09/15 17:13:49;;;;;;;5.65;1.20;;;;;;;20.42;49.75;100648.91;5125372;27;20035;-61
2022/09/15 17:16:14;;;;;;;5.28;1.25;;;;;;;20.32;49.92;100658.63;5127150;27;20089;-61
2022/09/15 17:18:40;;;;;;;4.20;1.10;;;;;;;20.23;50.63;100655.38;5125211;27;20032;-61
2022/09/15 17:21:06;;;;;;;5.28;1.58;;;;;;;20.21;50.75;100654.97;5126516;27;20040;-61
2022/09/15 17:23:31;;;;;;;5.35;1.50;;;;;;;20.21;50.15;100664.00;5126835;27;20023;-61
2022/09/15 17:25:57;;;;;;;5.55;2.00;;;;;;;20.15;50.10;100671.78;5125288;27;20038;-61
2022/09/15 17:28:23;;;;;;;8.45;2.17;;;;;;;20.16;50.44;100662.38;5126736;27;20088;-61
2022/09/15 17:30:48;;;;;;;9.38;2.58;;;;;;;20.02;50.99;100666.94;5126460;27;20074;-61
2022/09/15 17:33:13;;;;;;;9.90;2.83;;;;;;;20.13;50.97;100665.06;5124015;27;20032;-61
2022/09/15 17:35:39;;;;;;;8.93;2.65;;;;;;;19.87;50.44;100674.22;5122591;27;20043;-61
2022/09/15 17:38:04;;;;;;;8.35;3.03;;;;;;;19.67;52.03;100666.09;5126480;27;20036;-61
2022/09/15 17:40:29;;;;;;;12.25;2.88;;;;;;;19.98;50.93;100669.66;5126444;27;20108;-60
2022/09/15 17:42:54;;;;;;;10.20;3.60;;;;;;;19.87;50.76;100674.22;5126544;27;20028;-61
2022/09/15 17:45:20;;;;;;;8.95;3.25;;;;;;;20.06;49.64;100673.25;5118809;27;20105;-61
2022/09/15 17:47:45;;;;;;;11.73;3.13;;;;;;;20.06;49.90;100673.25;5111631;27;20472;-60
2022/09/15 17:50:10;;;;;;;9.63;3.15;;;;;;;20.00;49.86;100678.28;5112427;27;20119;-61
2022/09/15 17:52:36;;;;;;;7.97;2.42;;;;;;;20.09;50.10;100681.53;5112531;28;20028;-60
2022/09/15 17:55:01;;;;;;;5.63;1.80;;;;;;;20.02;50.78;100678.72;5094609;28;20024;-60
2022/09/15 17:57:26;;;;;;;7.85;2.30;;;;;;;20.03;50.98;100685.81;5113003;27;20024;-60
2022/09/15 17:59:52;;;;;;;11.55;3.20;;;;;;;20.11;51.07;100683.91;5111367;28;20387;-60
2022/09/15 18:02:17;;;;;;;10.07;3.50;;;;;;;20.03;50.43;100680.31;5111501;28;20028;-60
2022/09/15 18:04:43;;;;;;;10.70;4.35;;;;;;;20.09;51.35;100680.75;5112975;28;20072;-60
2022/09/15 18:07:09;;;;;;;14.90;6.13;;;;;;;20.08;51.41;100690.97;5112550;27;20028;-61
2022/09/15 18:09:34;;;;;;;13.25;5.50;;;;;;;19.92;51.57;100687.63;5112133;27;20028;-61
2022/09/15 18:11:59;;;;;;;11.90;5.40;;;;;;;20.02;51.26;100681.47;5111001;28;20490;-62
2022/09/15 18:14:25;;;;;;;18.55;5.70;;;;;;;20.03;51.19;100682.25;5112555;28;20541;-60
2022/09/15 18:16:50;;;;;;;13.43;5.23;;;;;;;19.94;50.54;100680.56;5106028;28;20392;-61
2022/09/15 18:19:15;;;;;;;11.30;4.10;;;;;;;19.99;50.85;100682.19;5090204;28;20362;-61
2022/09/15 18:21:40;;;;;;;14.57;4.25;;;;;;;19.92;50.45;100682.13;5089891;28;20271;-61
2022/09/15 18:24:06;;;;;;;7.07;2.72;;;;;;;19.88;50.20;100679.34;5091799;28;20606;-60
2022/09/15 18:26:32;;;;;;;10.98;2.88;;;;;;;19.98;50.50;100669.66;5091510;28;20086;-60
2022/09/15 18:28:57;;;;;;;10.77;2.80;;;;;;;20.04;49.50;100670.88;5091610;28;20037;-60
2022/09/15 18:31:22;;;;;;;12.48;3.15;;;;;;;19.91;50.20;100675.03;5091577;28;20358;-60
2022/09/15 18:33:47;;;;;;;9.60;2.80;;;;;;;19.95;50.54;100675.88;5090436;28;20051;-60
2022/09/15 18:36:13;;;;;;;10.05;2.50;;;;;;;19.93;50.53;100684.50;5091602;28;20037;-60
2022/09/15 18:38:38;;;;;;;7.63;2.63;;;;;;;19.89;50.89;100683.66;5091076;28;20036;-60
2022/09/15 18:41:03;;;;;;;10.13;2.20;;;;;;;19.79;50.35;100674.09;5091355;28;20036;-60
2022/09/15 18:43:29;;;;;;;8.13;1.70;;;;;;;19.65;51.53;100678.63;5091310;28;20368;-60
2022/09/15 18:45:55;;;;;;;6.50;1.38;;;;;;;19.61;50.93;100681.28;5091940;28;20032;-60
2022/09/15 18:48:20;;;;;;;3.20;1.20;;;;;;;19.73;51.21;100686.56;5091433;28;20035;-59
2022/09/15 18:50:45;;;;;;;6.35;1.80;;;;;;;19.69;51.04;100690.44;5091138;28;20107;-59
2022/09/15 18:53:10;;;;;;;3.80;1.30;;;;;;;19.75;50.45;100689.75;5090954;28;20036;-61
2022/09/15 18:55:36;;;;;;;6.00;1.77;;;;;;;19.73;50.69;100683.81;5091185;28;20517;-61
2022/09/15 18:58:01;;;;;;;9.50;2.05;;;;;;;19.76;50.52;100690.53;5089100;28;20032;-59
2022/09/15 19:00:27;;;;;;;7.28;1.90;;;;;;;19.63;50.77;100693.50;5091088;28;20392;-60
2022/09/15 19:02:52;;;;;;;7.47;1.70;;;;;;;19.65;50.76;100693.13;5089804;28;20477;-60
2022/09/15 19:05:18;;;;;;;5.63;1.67;;;;;;;19.71;51.39;100688.09;5091280;28;20456;-59
2022/09/15 19:07:43;;;;;;;8.98;1.67;;;;;;;19.77;51.25;100690.19;5089429;28;20063;-60
2022/09/15 19:10:09;;;;;;;7.78;1.75;;;;;;;19.73;51.31;100689.31;5090537;28;20056;-60
2022/09/15 19:12:35;;;;;;;3.95;1.30;;;;;;;19.71;50.90;100688.09;5090979;28;20133;-59
2022/09/15 19:15:00;;;;;;;8.50;1.90;;;;;;;19.77;50.88;100687.44;5091467;28;20107;-60
2022/09/15 19:17:25;;;;;;;6.90;1.50;;;;;;;19.60;50.57;100682.47;5100626;28;20036;-59
2022/09/15 19:19:51;;;;;;;4.47;1.25;;;;;;;19.52;51.14;100684.31;5111353;28;20038;-59
2022/09/15 19:22:16;;;;;;;5.45;1.35;;;;;;;19.56;50.57;100687.13;5110697;27;20024;-59
2022/09/15 19:24:41;;;;;;;6.50;1.30;;;;;;;19.57;49.93;100688.72;5111460;28;20078;-60
2022/09/15 19:27:06;;;;;;;5.50;1.20;;;;;;;19.60;50.78;100691.50;5110273;28;20106;-60
2022/09/15 19:29:33;;;;;;;5.72;1.40;;;;;;;19.36;50.71;100690.00;5110922;28;20262;-60
2022/09/15 19:31:58;;;;;;;5.72;1.33;;;;;;;19.52;51.14;100700.78;5111291;27;20238;-61
2022/09/15 19:34:24;;;;;;;4.18;1.50;;;;;;;19.35;51.46;100693.09;5109228;28;20044;-61
2022/09/15 19:36:49;;;;;;;6.50;1.38;;;;;;;19.37;51.25;100688.81;5110944;28;20055;-60
2022/09/15 19:39:14;;;;;;;6.15;1.30;;;;;;;19.44;50.74;100688.94;5110566;28;20028;-60
2022/09/15 19:41:39;;;;;;;7.32;1.40;;;;;;;19.47;50.81;100697.59;5111015;27;20038;-60
2022/09/15 19:44:05;;;;;;;6.85;1.73;;;;;;;19.47;50.34;100692.09;5111054;28;20059;-60
2022/09/15 19:46:32;;;;;;;10.00;1.77;;;;;;;19.46;50.53;100694.03;5111226;28;20036;-63
2022/09/15 19:48:58;;;;;;;9.05;1.80;;;;;;;19.39;50.50;100691.97;5110787;28;20034;-60
2022/09/15 19:51:23;;;;;;;8.00;1.70;;;;;;;19.41;50.56;100694.34;5110320;28;20030;-61
2022/09/15 19:53:48;;;;;;;7.68;1.23;;;;;;;19.32;51.34;100697.38;5110735;28;20300;-61
2022/09/15 19:56:14;;;;;;;6.90;1.70;;;;;;;19.28;51.15;100695.72;5110876;28;20032;-61
2022/09/15 19:58:39;;;;;;;6.47;1.40;;;;;;;19.30;51.71;100701.66;5110960;28;20035;-61
2022/09/15 20:01:04;;;;;;;9.63;1.80;;;;;;;19.24;51.41;100695.69;5110659;28;20249;-61
2022/09/15 20:03:30;;;;;;;5.85;1.50;;;;;;;19.29;51.92;100700.84;5111151;28;20066;-61
2022/09/15 20:05:55;;;;;;;5.68;1.50;;;;;;;19.33;51.59;100696.22;5110443;28;20480;-60
2022/09/15 20:08:20;;;;;;;8.95;1.60;;;;;;;19.24;51.69;100699.25;5108535;28;20074;-61
2022/09/15 20:10:45;;;;;;;8.82;1.70;;;;;;;19.23;51.85;100694.13;5109972;28;20373;-60
2022/09/15 20:13:11;;;;;;;7.13;1.45;;;;;;;19.33;50.91;100698.97;5108848;28;20048;-60
2022/09/15 20:15:36;;;;;;;8.70;1.58;;;;;;;19.41;51.59;100702.59;5110420;28;20039;-60
2022/09/15 20:18:02;;;;;;;7.30;1.80;;;;;;;19.38;51.68;100701.41;5110217;28;20028;-60
2022/09/15 20:20:27;;;;;;;5.78;1.48;;;;;;;19.34;51.37;100703.28;5091668;28;20258;-60
2022/09/15 20:22:52;;;;;;;7.07;1.70;;;;;;;19.27;51.80;100700.44;5110753;28;20036;-60
2022/09/15 20:25:18;;;;;;;8.57;1.65;;;;;;;19.21;51.31;100705.47;5110216;28;20038;-60
2022/09/15 20:27:44;;;;;;;6.10;1.90;;;;;;;19.21;51.29;100704.66;5110159;28;20495;-60
2022/09/15 20:30:09;;;;;;;8.35;2.15;;;;;;;19.17;51.65;100710.09;5110277;28;20028;-60
2022/09/15 20:32:34;;;;;;;5.78;1.73;;;;;;;19.23;51.33;100707.84;5109562;28;20031;-60
2022/09/15 20:35:00;;;;;;;7.93;2.25;;;;;;;19.21;51.33;100702.72;5110157;28;20036;-60
2022/09/15 20:37:25;;;;;;;8.05;2.15;;;;;;;19.14;51.54;100710.81;5109886;28;20036;-60
2022/09/15 20:39:50;;;;;;;9.50;2.00;;;;;;;19.22;51.31;100717.22;5109625;28;20060;-60
2022/09/15 20:42:16;;;;;;;6.18;1.52;;;;;;;19.28;51.32;100704.78;5108870;28;20024;-60
2022/09/15 20:44:41;;;;;;;10.15;1.85;;;;;;;19.29;51.50;100716.53;5110031;28;20099;-59
2022/09/15 20:47:06;;;;;;;7.10;1.45;;;;;;;19.25;51.81;100719.22;5110208;28;20138;-61
2022/09/15 20:49:31;;;;;;;7.38;1.60;;;;;;;19.21;51.60;100715.63;5110112;28;20016;-63
2022/09/15 20:51:57;;;;;;;8.50;1.70;;;;;;;19.31;51.44;100716.97;5108679;28;20028;-62
2022/09/15 20:54:22;;;;;;;10.70;1.70;;;;;;;19.37;52.03;100710.00;5109779;28;20472;-64
2022/09/15 20:56:48;;;;;;;8.30;1.50;;;;;;;19.39;52.02;100716.69;5110231;28;20028;-63
2022/09/15 20:59:14;;;;;;;5.82;1.80;;;;;;;19.33;51.38;100712.69;5109778;28;20035;-63
2022/09/15 21:01:39;;;;;;;8.25;2.22;;;;;;;19.29;52.31;100727.53;5110339;28;20542;-63
2022/09/15 21:04:04;;;;;;;5.70;1.50;;;;;;;19.20;52.52;100719.56;5110126;28;20035;-63
2022/09/15 21:06:30;;;;;;;4.90;1.30;;;;;;;19.21;51.84;100721.13;5109824;28;20040;-63
2022/09/15 21:08:56;;;;;;;5.45;1.60;;;;;;;19.30;51.47;100720.88;5109889;28;20024;-64
2022/09/15 21:11:22;;;;;;;9.77;1.50;;;;;;;19.31;51.47;100720.50;5109868;28;20499;-63
2022/09/15 21:13:48;;;;;;;4.10;1.13;;;;;;;19.32;51.90;100724.03;5109918;28;20035;-63
2022/09/15 21:16:13;;;;;;;7.28;1.55;;;;;;;19.13;52.26;100731.22;5110079;28;20538;-62
2022/09/15 21:18:39;;;;;;;7.15;1.52;;;;;;;19.22;51.84;100728.19;5109767;28;20036;-63
2022/09/15 21:21:04;;;;;;;4.47;1.30;;;;;;;18.98;51.66;100724.69;5112308;27;20073;-64
2022/09/15 21:23:29;;;;;;;3.40;0.83;;;;;;;19.09;52.07;100724.84;5113262;28;20081;-64
2022/09/15 21:25:55;;;;;;;4.97;1.25;;;;;;;18.95;52.05;100732.88;5113533;28;20281;-63
2022/09/15 21:28:20;;;;;;;8.00;1.30;;;;;;;18.93;52.12;100730.50;5113645;28;20032;-64
2022/09/15 21:30:45;;;;;;;6.30;1.40;;;;;;;18.85;53.02;100732.31;5112894;28;20032;-64
2022/09/15 21:33:10;;;;;;;6.90;1.13;;;;;;;18.84;53.00;100728.00;5111426;27;20113;-64
2022/09/15 21:35:36;;;;;;;6.90;1.25;;;;;;;18.92;52.63;100720.66;5112271;28;20262;-64
2022/09/15 21:38:01;;;;;;;8.45;1.25;;;;;;;18.78;52.16;100734.91;5112120;28;20050;-63
2022/09/15 21:40:26;;;;;;;4.60;1.20;;;;;;;18.67;52.58;100731.16;5113229;28;20169;-64
2022/09/15 21:42:52;;;;;;;3.67;0.88;;;;;;;18.66;52.87;100733.13;5111867;27;20258;-63
2022/09/15 21:45:17;;;;;;;4.88;0.88;;;;;;;18.89;52.22;100726.88;5113318;28;20105;-64
2022/09/15 21:47:42;;;;;;;4.90;1.10;;;;;;;18.86;52.41;100731.16;5113030;28;20032;-66
2022/09/15 21:50:08;;;;;;;6.03;1.30;;;;;;;18.66;51.86;100735.06;5112881;28;20499;-65
2022/09/15 21:52:33;;;;;;;3.75;0.90;;;;;;;18.81;51.92;100738.84;5112579;27;20043;-65
2022/09/15 21:54:58;;;;;;;9.40;1.08;;;;;;;18.96;51.98;100738.00;5111663;28;20032;-65
2022/09/15 21:57:23;;;;;;;7.68;1.20;;;;;;;18.94;51.20;100734.00;5113037;28;20031;-63
2022/09/15 21:59:49;;;;;;;6.93;1.25;;;;;;;18.99;51.94;100730.97;5112937;28;20024;-66
2022/09/15 22:02:16;;;;;;;5.72;1.15;;;;;;;19.01;51.31;100729.44;5112611;27;20032;-64
2022/09/15 22:04:41;;;;;;;9.30;1.08;;;;;;;18.97;51.93;100742.31;5112261;28;20545;-63
2022/09/15 22:07:06;;;;;;;5.85;1.70;;;;;;;18.93;51.14;100733.22;5112496;28;20032;-65
2022/09/15 22:09:31;;;;;;;6.40;1.30;;;;;;;18.91;51.85;100741.03;5112633;28;20019;-66
2022/09/15 22:11:57;;;;;;;4.57;1.30;;;;;;;18.85;51.54;100742.50;5112930;27;20388;-65
2022/09/15 22:14:22;;;;;;;6.05;1.08;;;;;;;18.70;51.51;100730.44;5111203;28;20037;-65
2022/09/15 22:16:48;;;;;;;3.58;1.13;;;;;;;18.69;52.23;100737.06;5112918;28;20038;-66
2022/09/15 22:19:13;;;;;;;6.32;1.00;;;;;;;18.78;51.92;100736.84;5112514;28;20024;-65
2022/09/15 22:21:40;;;;;;;6.57;1.20;;;;;;;18.74;51.09;100742.25;5112346;28;20111;-67
2022/09/15 22:24:05;;;;;;;3.72;0.98;;;;;;;18.67;51.14;100737.44;5072412;22;20061;-63
2022/09/15 22:26:31;;;;;;;4.90;1.05;;;;;;;18.65;51.91;100739.75;5051586;28;20494;-64
2022/09/15 22:28:56;;;;;;;6.80;1.27;;;;;;;18.69;51.51;100739.81;5050858;28;20029;-63
2022/09/15 22:31:21;;;;;;;4.38;1.10;;;;;;;18.60;51.50;100753.75;5051059;28;20030;-62
2022/09/15 22:33:47;;;;;;;6.85;1.40;;;;;;;18.65;51.74;100739.75;5037211;28;20069;-62
2022/09/15 22:36:12;;;;;;;6.18;1.10;;;;;;;18.69;51.55;100740.63;5031771;28;20065;-63
2022/09/15 22:38:37;;;;;;;5.30;1.42;;;;;;;18.59;51.40;100740.41;5029801;28;20017;-62
2022/09/15 22:41:02;;;;;;;6.88;1.15;;;;;;;18.38;52.11;100746.31;5029988;28;20034;-63
2022/09/15 22:43:28;;;;;;;5.13;1.00;;;;;;;18.33;52.56;100756.38;5031085;28;20061;-64
2022/09/15 22:45:53;;;;;;;9.25;1.40;;;;;;;18.25;52.55;100749.16;5031646;28;20030;-63
2022/09/15 22:48:18;;;;;;;5.80;0.93;;;;;;;18.41;51.78;100742.81;5030660;28;20053;-61
2022/09/15 22:50:44;;;;;;;7.13;1.20;;;;;;;18.56;51.80;100741.94;5030990;28;20312;-62
2022/09/15 22:53:11;;;;;;;4.63;1.00;;;;;;;18.63;51.12;100741.28;5030922;28;20327;-63
2022/09/15 22:55:36;;;;;;;7.82;1.50;;;;;;;18.64;51.23;100754.66;5030744;28;20026;-64
2022/09/15 22:58:02;;;;;;;4.93;1.00;;;;;;;18.55;51.89;100750.53;5031026;28;20406;-62
2022/09/15 23:00:27;;;;;;;5.73;1.33;;;;;;;18.51;51.42;100743.03;5030574;28;20033;-62
2022/09/15 23:02:53;;;;;;;6.60;1.13;;;;;;;18.59;51.29;100743.94;5030953;28;20277;-62
2022/09/15 23:05:18;;;;;;;7.10;1.00;;;;;;;18.65;51.61;100744.47;5031360;28;20052;-62
2022/09/15 23:07:43;;;;;;;3.30;0.80;;;;;;;18.67;51.83;100740.19;5031373;28;20066;-62
2022/09/15 23:10:08;;;;;;;4.45;1.00;;;;;;;18.67;51.06;100737.44;5030492;28;20033;-62
2022/09/15 23:12:34;;;;;;;6.40;1.15;;;;;;;18.68;51.85;100741.00;5030561;28;20449;-62
2022/09/15 23:15:02;;;;;;;5.93;1.15;;;;;;;18.55;51.80;100737.59;5029439;28;20045;-62
2022/09/15 23:17:28;;;;;;;4.55;0.90;;;;;;;18.47;51.72;100728.44;5030890;28;20036;-62
2022/09/15 23:19:53;;;;;;;4.53;1.00;;;;;;;18.51;51.97;100734.03;5030599;28;20088;-62
2022/09/15 23:22:19;;;;;;;6.43;1.23;;;;;;;18.48;51.88;100732.78;5030054;28;20256;-62
2022/09/15 23:24:44;;;;;;;3.67;1.40;;;;;;;18.43;51.93;100737.78;5030736;28;20037;-62
2022/09/15 23:27:09;;;;;;;7.10;1.20;;;;;;;18.58;51.67;100738.84;5030825;28;20453;-62
2022/09/15 23:29:35;;;;;;;7.50;1.33;;;;;;;18.37;52.31;100728.25;5029045;28;20038;-61
2022/09/15 23:32:00;;;;;;;8.05;1.50;;;;;;;18.50;51.33;100727.72;5030931;28;20293;-63
2022/09/15 23:34:25;;;;;;;3.50;1.00;;;;;;;18.55;51.33;100734.88;5030648;28;20034;-62
2022/09/15 23:36:50;;;;;;;8.95;1.63;;;;;;;18.46;51.50;100717.84;5030499;28;20109;-61
2022/09/15 23:39:16;;;;;;;6.43;1.08;;;;;;;18.52;51.49;100736.38;5030146;28;20034;-62
2022/09/15 23:41:41;;;;;;;4.43;0.90;;;;;;;18.58;51.16;100723.19;5028965;28;20501;-61
2022/09/15 23:44:06;;;;;;;5.22;1.17;;;;;;;18.54;51.58;100716.81;5029507;28;20029;-62
2022/09/15 23:46:31;;;;;;;5.30;1.42;;;;;;;18.49;51.81;100720.69;5030217;28;20070;-62
2022/09/15 23:48:57;;;;;;;6.07;1.00;;;;;;;18.68;51.10;100724.53;5029981;28;20486;-62
2022/09/15 23:51:22;;;;;;;5.47;1.10;;;;;;;18.57;50.89;100726.28;5030400;28;20034;-62
2022/09/15 23:53:47;;;;;;;5.23;1.20;;;;;;;18.55;51.68;100726.66;5029832;28;20268;-62
2022/09/15 23:56:12;;;;;;;5.25;0.90;;;;;;;18.52;51.71;100730.09;5030383;28;20343;-62
2022/09/15 23:58:38;;;;;;;5.43;1.13;;;;;;;18.39;52.13;100725.94;5029989;28;20236;-62
